Time;durP1;ratioP1;P1;durP2;ratioP2;P2;SDS_P1;SDS_P2;PMS_P1;PMS_P2;Temp;Humidity;BMP_temperature;BMP_pressure;BME280_temperature;BME280_humidity;BME280_pressure;Samples;Min_cycle;Max_cycle;Signal;HPM_P1;HPM_P2
2022/01/13 00:00:20;;;;;;;10.40;5.40;;;15.30;58.50;;;;;;5066581;28;20478;-85
2022/01/13 00:02:48;;;;;;;9.90;6.10;;;15.30;58.40;;;;;;5061764;28;20458;-82
2022/01/13 00:05:19;;;;;;;9.00;5.10;;;15.30;58.50;;;;;;5058236;28;20446;-82
2022/01/13 00:07:48;;;;;;;14.90;6.57;;;15.30;58.50;;;;;;5051929;28;20451;-82
2022/01/13 00:10:16;;;;;;;11.20;5.90;;;15.30;58.50;;;;;;5047762;28;20463;-82
2022/01/13 00:12:44;;;;;;;10.47;5.70;;;15.30;58.50;;;;;;5046699;28;20475;-83
2022/01/13 00:15:26;;;;;;;9.33;5.53;;;15.30;58.50;;;;;;5050303;28;20486;-81
2022/01/13 00:18:01;;;;;;;13.77;6.10;;;15.40;58.60;;;;;;5054497;28;20488;-81
2022/01/13 00:25:58;;;;;;;7.60;5.33;;;15.40;58.60;;;;;;5058266;28;20599;-84
2022/01/13 00:28:26;;;;;;;8.00;5.33;;;15.40;58.60;;;;;;5046531;28;20454;-81
2022/01/13 00:30:56;;;;;;;11.57;6.17;;;15.40;58.60;;;;;;5053825;28;20617;-80
2022/01/13 00:33:26;;;;;;;12.00;5.90;;;15.40;58.70;;;;;;5052224;28;20452;-81
2022/01/13 00:35:55;;;;;;;11.13;5.97;;;15.40;58.70;;;;;;5054829;28;20531;-82
2022/01/13 00:38:25;;;;;;;11.37;6.17;;;15.40;58.60;;;;;;5054130;28;20470;-80
2022/01/13 00:40:53;;;;;;;10.40;5.90;;;15.40;58.60;;;;;;5056294;28;20970;-82
2022/01/13 00:43:21;;;;;;;12.00;5.63;;;15.40;58.60;;;;;;5053496;28;20481;-81
2022/01/13 00:45:49;;;;;;;12.93;5.83;;;15.40;58.60;;;;;;5059299;28;20446;-80
2022/01/13 00:48:17;;;;;;;9.87;5.37;;;15.40;58.70;;;;;;5054850;28;20465;-80
2022/01/13 00:50:46;;;;;;;11.40;5.90;;;15.40;58.60;;;;;;5054030;28;20538;-81
2022/01/13 00:53:14;;;;;;;9.73;5.93;;;15.40;58.60;;;;;;5056919;28;20512;-80
2022/01/13 00:55:48;;;;;;;14.80;6.17;;;15.40;58.70;;;;;;5046081;28;20486;-80
2022/01/13 00:58:17;;;;;;;9.87;5.90;;;15.40;58.70;;;;;;5058676;28;20449;-80
2022/01/13 01:00:45;;;;;;;8.70;5.57;;;15.40;58.70;;;;;;5053724;28;20498;-81
2022/01/13 01:03:13;;;;;;;10.20;6.30;;;15.40;58.70;;;;;;5054870;28;20523;-82
2022/01/13 01:05:41;;;;;;;13.67;6.70;;;15.40;58.70;;;;;;5059293;28;20479;-80
2022/01/13 01:08:10;;;;;;;11.90;6.37;;;15.40;58.70;;;;;;5057917;28;20476;-82
2022/01/13 01:10:45;;;;;;;12.10;6.30;;;15.40;58.70;;;;;;5061582;28;20467;-82
2022/01/13 01:13:15;;;;;;;11.50;6.30;;;15.40;58.60;;;;;;5053953;28;20526;-81
2022/01/13 01:15:47;;;;;;;12.73;6.77;;;15.30;58.60;;;;;;5059267;28;20944;-81
2022/01/13 01:18:26;;;;;;;11.73;6.00;;;15.40;58.70;;;;;;5056991;28;20443;-81
2022/01/13 01:21:16;;;;;;;10.70;5.53;;;15.40;58.70;;;;;;5056248;28;20462;-81
2022/01/13 01:23:59;;;;;;;12.20;6.97;;;15.40;58.70;;;;;;5048082;28;20541;-81
2022/01/13 01:26:38;;;;;;;8.73;5.10;;;15.40;58.70;;;;;;5048958;28;20482;-81
2022/01/13 01:29:14;;;;;;;12.60;5.97;;;15.40;58.80;;;;;;5052077;28;20514;-81
2022/01/13 01:31:48;;;;;;;9.77;5.63;;;15.40;58.80;;;;;;5052563;28;20565;-81
2022/01/13 01:34:28;;;;;;;14.07;6.37;;;15.30;58.70;;;;;;5050743;28;20455;-81
2022/01/13 01:36:56;;;;;;;11.03;5.90;;;15.40;58.90;;;;;;5050504;28;20454;-81
2022/01/13 01:39:24;;;;;;;12.10;6.30;;;15.40;58.80;;;;;;5053407;28;20498;-81
2022/01/13 01:41:56;;;;;;;10.30;6.00;;;15.40;58.80;;;;;;5051550;28;20489;-81
2022/01/13 01:44:27;;;;;;;10.90;5.93;;;15.40;58.90;;;;;;5054864;28;20498;-81
2022/01/13 01:46:55;;;;;;;12.27;5.93;;;15.40;58.80;;;;;;5053055;28;20541;-81
2022/01/13 01:49:25;;;;;;;13.57;6.03;;;15.40;58.80;;;;;;5049106;28;20502;-81
2022/01/13 01:51:54;;;;;;;11.03;6.10;;;15.40;58.80;;;;;;5050600;28;20479;-81
2022/01/13 01:54:22;;;;;;;13.47;6.53;;;15.40;59.50;;;;;;5046272;28;20549;-81
2022/01/13 01:56:50;;;;;;;9.37;5.70;;;15.40;58.80;;;;;;5066489;28;20480;-81
2022/01/13 01:59:21;;;;;;;12.20;6.40;;;15.40;58.80;;;;;;5055039;28;20565;-81
2022/01/13 02:01:50;;;;;;;10.93;6.23;;;15.40;58.80;;;;;;5045110;28;20531;-80
2022/01/13 02:04:18;;;;;;;12.10;6.10;;;15.40;58.80;;;;;;5052600;28;20496;-81
2022/01/13 02:06:46;;;;;;;9.23;5.60;;;15.40;58.80;;;;;;5054537;28;20435;-81
2022/01/13 02:09:16;;;;;;;8.73;6.10;;;15.40;58.80;;;;;;5052915;28;20470;-80
2022/01/13 02:11:45;;;;;;;13.87;6.80;;;15.40;58.80;;;;;;5050595;28;20485;-82
2022/01/13 02:14:32;;;;;;;9.80;5.57;;;15.40;58.70;;;;;;5048892;28;20500;-80
2022/01/13 02:17:46;;;;;;;9.23;5.60;;;15.40;58.70;;;;;;5052289;28;20465;-82
2022/01/13 02:20:18;;;;;;;12.30;6.33;;;15.40;58.80;;;;;;5047129;28;21060;-79
2022/01/13 02:22:46;;;;;;;11.70;5.97;;;15.40;58.70;;;;;;5047788;28;20526;-79
2022/01/13 02:25:14;;;;;;;11.40;6.03;;;15.40;58.90;;;;;;5051212;28;20513;-79
2022/01/13 02:27:42;;;;;;;11.63;5.60;;;15.40;58.90;;;;;;5049809;28;20526;-79
2022/01/13 02:30:11;;;;;;;9.87;5.83;;;15.40;58.80;;;;;;5052618;28;20450;-80
2022/01/13 02:32:40;;;;;;;10.43;5.83;;;15.40;58.80;;;;;;5048320;28;20505;-80
2022/01/13 02:35:08;;;;;;;9.90;5.80;;;15.40;58.70;;;;;;5055806;28;20517;-79
2022/01/13 02:37:38;;;;;;;10.10;6.00;;;15.40;58.90;;;;;;5046340;28;20450;-79
2022/01/13 02:40:06;;;;;;;9.87;5.53;;;15.40;58.80;;;;;;5051605;28;20545;-80
2022/01/13 02:42:34;;;;;;;11.73;6.03;;;15.40;58.80;;;;;;5050142;28;20443;-79
2022/01/13 02:45:03;;;;;;;11.10;5.87;;;15.30;58.80;;;;;;5054254;28;20535;-79
2022/01/13 02:47:59;;;;;;;11.07;6.23;;;15.40;58.80;;;;;;5045822;28;20537;-80
2022/01/13 02:50:26;;;;;;;8.93;5.87;;;15.40;58.90;;;;;;5056707;28;20458;-79
2022/01/13 02:52:56;;;;;;;9.40;6.07;;;15.40;58.90;;;;;;5045189;28;20564;-80
2022/01/13 02:55:24;;;;;;;14.10;5.87;;;15.40;58.90;;;;;;5048214;28;20466;-80
2022/01/13 02:57:52;;;;;;;10.03;5.87;;;15.40;58.80;;;;;;5042769;28;20461;-80
2022/01/13 03:00:20;;;;;;;9.70;5.97;;;15.40;58.80;;;;;;5056278;28;20965;-80
2022/01/13 03:02:48;;;;;;;9.53;5.93;;;15.40;58.80;;;;;;5044136;28;20529;-80
2022/01/13 03:05:17;;;;;;;10.70;5.63;;;15.40;58.80;;;;;;5056533;28;20431;-80
2022/01/13 03:07:45;;;;;;;10.10;6.30;;;15.40;58.80;;;;;;5048662;28;20450;-80
2022/01/13 03:10:14;;;;;;;11.10;6.47;;;15.40;58.80;;;;;;5056613;28;20465;-80
2022/01/13 03:12:45;;;;;;;13.07;5.40;;;15.40;58.80;;;;;;5040172;28;20482;-80
2022/01/13 03:15:13;;;;;;;9.10;5.70;;;15.40;58.80;;;;;;5051609;28;20434;-80
2022/01/13 03:17:41;;;;;;;10.87;6.60;;;15.40;58.80;;;;;;5049478;28;20565;-80
2022/01/13 03:20:10;;;;;;;10.63;6.20;;;15.40;58.90;;;;;;5055489;28;20529;-80
2022/01/13 03:22:38;;;;;;;12.30;6.47;;;15.40;58.80;;;;;;5050072;28;20538;-80
2022/01/13 03:25:06;;;;;;;11.77;6.37;;;15.40;58.80;;;;;;5055572;28;20437;-80
2022/01/13 03:27:36;;;;;;;11.03;6.43;;;15.40;58.80;;;;;;5050653;28;20518;-80
2022/01/13 03:30:06;;;;;;;14.37;6.50;;;15.40;58.90;;;;;;5053959;28;20451;-79
2022/01/13 03:32:34;;;;;;;12.17;5.90;;;15.40;58.80;;;;;;5050896;28;20505;-81
2022/01/13 03:35:02;;;;;;;12.03;6.63;;;15.40;58.80;;;;;;5052427;28;20506;-79
2022/01/13 03:37:30;;;;;;;10.03;5.73;;;15.40;59.00;;;;;;5056583;28;20896;-80
2022/01/13 03:39:58;;;;;;;13.93;6.17;;;15.40;58.90;;;;;;5058358;28;20526;-80
2022/01/13 03:42:26;;;;;;;11.30;6.20;;;15.40;58.90;;;;;;5057725;28;20427;-80
2022/01/13 03:44:55;;;;;;;8.50;5.53;;;15.40;58.80;;;;;;5057200;28;20565;-80
2022/01/13 03:47:24;;;;;;;11.33;6.30;;;15.40;58.90;;;;;;5055774;28;20455;-80
2022/01/13 03:49:51;;;;;;;9.93;6.03;;;15.40;58.80;;;;;;5055814;28;20490;-80
2022/01/13 03:52:52;;;;;;;8.70;5.57;;;15.30;58.90;;;;;;5059995;28;20509;-80
2022/01/13 03:56:01;;;;;;;9.37;5.63;;;15.30;58.80;;;;;;5059751;28;20508;-80
2022/01/13 03:59:02;;;;;;;10.90;6.40;;;15.30;58.70;;;;;;5059712;28;20533;-80
2022/01/13 04:02:06;;;;;;;9.97;6.00;;;15.30;58.80;;;;;;5059488;28;20472;-80
2022/01/13 04:04:35;;;;;;;11.43;6.50;;;15.30;58.80;;;;;;5059601;28;20433;-80
2022/01/13 04:07:14;;;;;;;10.00;5.93;;;15.30;58.90;;;;;;5043639;28;20452;-80
2022/01/13 04:10:23;;;;;;;9.70;5.97;;;15.30;58.80;;;;;;5039505;28;20451;-80
2022/01/13 04:12:51;;;;;;;13.33;6.90;;;15.30;58.80;;;;;;5039393;28;20561;-80
2022/01/13 04:15:20;;;;;;;9.97;5.83;;;15.30;59.00;;;;;;5039063;28;20447;-80
2022/01/13 04:17:50;;;;;;;11.57;6.37;;;15.30;59.00;;;;;;5039670;28;20530;-80
2022/01/13 04:20:18;;;;;;;8.60;6.30;;;15.30;59.00;;;;;;5038842;28;21065;-81
2022/01/13 04:22:48;;;;;;;9.40;6.13;;;15.30;59.00;;;;;;5037027;28;20562;-80
2022/01/13 04:25:21;;;;;;;12.50;6.17;;;15.30;58.80;;;;;;5046333;28;20462;-78
2022/01/13 04:27:49;;;;;;;11.70;6.30;;;15.30;58.80;;;;;;5054864;28;20496;-78
2022/01/13 04:33:07;;;;;;;6.80;5.30;;;15.30;58.90;;;;;;5051514;28;20466;-78
2022/01/13 04:35:35;;;;;;;8.97;5.90;;;15.30;58.90;;;;;;5054763;28;20537;-78
2022/01/13 04:38:03;;;;;;;11.70;6.80;;;15.30;59.00;;;;;;5054889;28;20553;-78
2022/01/13 04:40:31;;;;;;;9.80;5.90;;;15.30;59.00;;;;;;5058045;28;20557;-78
2022/01/13 04:42:59;;;;;;;10.07;6.17;;;15.30;58.90;;;;;;5058308;28;20457;-78
2022/01/13 04:45:27;;;;;;;11.17;6.23;;;15.30;58.90;;;;;;5054458;28;20984;-79
2022/01/13 04:47:56;;;;;;;10.10;6.33;;;15.30;58.90;;;;;;5054526;28;20521;-78
2022/01/13 04:50:28;;;;;;;9.40;6.13;;;15.30;58.80;;;;;;5054776;28;20549;-78
2022/01/13 04:52:55;;;;;;;10.50;5.70;;;15.30;58.90;;;;;;5054618;28;20557;-79
2022/01/13 04:55:26;;;;;;;11.17;6.87;;;15.30;58.90;;;;;;5054667;28;20541;-79
2022/01/13 04:57:55;;;;;;;9.27;6.10;;;15.30;58.90;;;;;;5047655;28;20459;-78
2022/01/13 05:00:24;;;;;;;9.10;5.50;;;15.30;58.90;;;;;;5043001;28;20454;-80
2022/01/13 05:02:52;;;;;;;8.83;5.90;;;15.30;58.80;;;;;;5054002;28;20530;-78
2022/01/13 05:05:21;;;;;;;9.20;6.17;;;15.30;58.90;;;;;;5052558;28;20469;-78
2022/01/13 05:07:50;;;;;;;9.70;6.20;;;15.30;59.00;;;;;;5053405;28;20557;-79
2022/01/13 05:10:19;;;;;;;10.87;5.60;;;15.30;58.90;;;;;;5053033;28;20457;-78
2022/01/13 05:12:56;;;;;;;10.93;6.23;;;15.30;58.90;;;;;;5052487;28;20482;-78
2022/01/13 05:15:26;;;;;;;9.47;5.87;;;15.30;58.90;;;;;;5053323;28;20517;-78
2022/01/13 05:20:46;;;;;;;9.40;5.73;;;15.30;59.00;;;;;;5054539;28;20478;-78
2022/01/13 05:23:16;;;;;;;10.20;6.43;;;15.30;59.00;;;;;;5054320;28;20494;-78
2022/01/13 05:25:44;;;;;;;8.13;5.70;;;15.30;58.90;;;;;;5054262;28;20543;-79
2022/01/13 05:28:12;;;;;;;10.60;6.37;;;15.30;59.00;;;;;;5054387;28;20474;-79
2022/01/13 05:30:40;;;;;;;10.03;6.03;;;15.30;58.90;;;;;;5040734;28;20495;-78
2022/01/13 05:33:08;;;;;;;11.57;6.20;;;15.30;58.80;;;;;;5052094;28;20461;-79
2022/01/13 05:35:37;;;;;;;8.77;5.90;;;15.30;58.80;;;;;;5055893;28;20466;-79
2022/01/13 05:38:05;;;;;;;8.70;5.57;;;15.30;58.90;;;;;;5054904;28;20477;-79
2022/01/13 05:40:35;;;;;;;8.13;5.50;;;15.30;58.90;;;;;;5054414;28;20455;-79
2022/01/13 05:43:04;;;;;;;9.60;6.17;;;15.30;58.90;;;;;;5054210;28;20446;-79
2022/01/13 05:45:38;;;;;;;10.60;6.40;;;15.30;58.90;;;;;;5051981;28;20548;-78
2022/01/13 05:48:06;;;;;;;10.57;6.43;;;15.30;58.90;;;;;;5054045;28;20438;-79
2022/01/13 05:50:34;;;;;;;9.80;6.43;;;15.30;58.90;;;;;;5053995;28;20546;-79
2022/01/13 05:53:02;;;;;;;10.13;5.73;;;15.30;58.90;;;;;;5053880;28;20513;-79
2022/01/13 05:55:30;;;;;;;7.83;5.83;;;15.30;58.80;;;;;;5054139;28;20481;-78
2022/01/13 05:58:00;;;;;;;7.13;5.27;;;15.30;58.90;;;;;;5053805;28;20526;-78
2022/01/13 06:00:28;;;;;;;9.10;5.90;;;15.30;59.00;;;;;;5053379;28;20905;-78
2022/01/13 06:02:56;;;;;;;10.13;5.60;;;15.30;59.00;;;;;;5052368;28;20490;-79
2022/01/13 06:05:25;;;;;;;7.43;5.20;;;15.30;58.90;;;;;;5039762;28;20454;-79
2022/01/13 06:07:54;;;;;;;8.53;5.53;;;15.30;59.00;;;;;;5053957;28;20525;-79
2022/01/13 06:10:22;;;;;;;7.87;5.57;;;15.30;58.90;;;;;;5061155;28;20492;-79
2022/01/13 06:12:50;;;;;;;9.67;5.67;;;15.30;58.80;;;;;;5049001;28;20457;-80
2022/01/13 06:15:21;;;;;;;9.17;6.40;;;15.30;58.80;;;;;;5054069;28;20913;-79
2022/01/13 06:17:50;;;;;;;8.30;5.27;;;15.30;58.90;;;;;;5053377;28;20465;-79
2022/01/13 06:20:18;;;;;;;8.40;5.57;;;15.30;59.00;;;;;;5052791;28;20578;-80
2022/01/13 06:22:47;;;;;;;10.33;5.80;;;15.30;58.90;;;;;;5051690;28;20489;-78
2022/01/13 06:25:15;;;;;;;7.80;5.70;;;15.30;58.90;;;;;;5054469;28;20522;-79
2022/01/13 06:27:44;;;;;;;9.27;6.00;;;15.30;58.90;;;;;;5053955;28;20514;-79
2022/01/13 06:30:33;;;;;;;9.10;5.73;;;15.30;58.90;;;;;;5053615;28;20466;-79
2022/01/13 06:33:02;;;;;;;8.60;5.40;;;15.30;58.90;;;;;;5053897;28;20466;-78
2022/01/13 06:35:31;;;;;;;9.03;5.53;;;15.30;58.80;;;;;;5054195;28;21076;-80
2022/01/13 06:37:59;;;;;;;8.67;5.73;;;15.30;58.90;;;;;;5053381;28;20478;-79
2022/01/13 06:40:27;;;;;;;10.60;5.70;;;15.30;58.80;;;;;;5053424;28;20450;-79
2022/01/13 06:42:55;;;;;;;9.60;5.90;;;15.30;58.90;;;;;;5053573;28;20458;-79
2022/01/13 06:45:23;;;;;;;9.00;5.93;;;15.30;58.90;;;;;;5053807;28;20491;-79
2022/01/13 06:47:52;;;;;;;9.77;6.13;;;15.30;58.80;;;;;;5053397;28;20485;-79
2022/01/13 06:50:20;;;;;;;9.90;6.20;;;15.30;58.90;;;;;;5052778;28;20465;-79
2022/01/13 06:52:49;;;;;;;8.00;6.10;;;15.30;58.90;;;;;;5052584;28;20470;-80
2022/01/13 06:55:17;;;;;;;9.23;5.93;;;15.30;58.80;;;;;;5051424;28;20501;-79
2022/01/13 06:57:46;;;;;;;10.17;6.40;;;15.20;58.80;;;;;;5053135;28;20529;-80
2022/01/13 07:00:14;;;;;;;10.07;6.10;;;15.20;58.80;;;;;;5054598;28;20470;-79
2022/01/13 07:02:43;;;;;;;8.47;5.80;;;15.20;58.80;;;;;;5053646;28;20445;-79
2022/01/13 07:05:12;;;;;;;8.20;5.60;;;15.20;58.80;;;;;;5053620;28;20648;-79
2022/01/13 07:07:40;;;;;;;8.70;5.63;;;15.30;58.80;;;;;;5052983;28;20498;-79
2022/01/13 07:10:10;;;;;;;10.83;6.63;;;15.30;58.90;;;;;;5052696;28;20505;-78
2022/01/13 07:12:38;;;;;;;8.33;5.30;;;15.30;58.80;;;;;;5049799;28;20649;-79
2022/01/13 07:15:07;;;;;;;11.20;6.10;;;15.20;58.80;;;;;;5040671;28;20466;-79
2022/01/13 07:17:36;;;;;;;12.50;7.17;;;15.20;58.80;;;;;;5052945;28;20506;-79
2022/01/13 07:20:04;;;;;;;9.90;6.43;;;15.30;58.90;;;;;;5052110;28;20517;-79
2022/01/13 07:22:34;;;;;;;11.37;6.00;;;15.20;58.80;;;;;;5052651;28;20537;-79
2022/01/13 07:25:02;;;;;;;11.53;6.37;;;15.30;58.80;;;;;;5051624;28;20427;-79
2022/01/13 07:27:30;;;;;;;9.67;6.03;;;15.20;58.80;;;;;;5052299;28;20442;-79
2022/01/13 07:29:58;;;;;;;8.70;5.70;;;15.20;58.80;;;;;;5052517;28;20530;-79
2022/01/13 07:32:27;;;;;;;9.20;6.47;;;15.20;58.80;;;;;;5040398;28;20485;-79
2022/01/13 07:34:55;;;;;;;8.67;5.70;;;15.20;58.80;;;;;;5052263;28;20577;-79
2022/01/13 07:37:24;;;;;;;8.13;5.50;;;15.20;58.80;;;;;;5052110;28;20473;-79
2022/01/13 07:39:53;;;;;;;7.47;5.10;;;15.20;58.80;;;;;;5051923;28;20554;-79
2022/01/13 07:42:23;;;;;;;9.90;6.03;;;15.20;58.80;;;;;;5052124;28;20918;-79
2022/01/13 07:44:52;;;;;;;10.73;6.50;;;15.20;58.80;;;;;;5052019;28;20506;-79
2022/01/13 07:47:21;;;;;;;10.37;6.00;;;15.20;58.70;;;;;;5052113;28;20469;-79
2022/01/13 07:49:48;;;;;;;9.03;5.90;;;15.20;58.80;;;;;;5050362;28;20480;-79
2022/01/13 07:52:17;;;;;;;9.13;6.50;;;15.20;58.80;;;;;;5052163;28;20438;-80
2022/01/13 07:54:45;;;;;;;10.43;6.47;;;15.20;58.80;;;;;;5052370;28;20478;-79
2022/01/13 07:57:14;;;;;;;9.10;6.13;;;15.20;58.80;;;;;;5052091;28;20439;-79
2022/01/13 07:59:43;;;;;;;9.60;6.50;;;15.20;58.80;;;;;;5051471;28;20462;-80
2022/01/13 08:02:11;;;;;;;9.60;6.07;;;15.20;58.80;;;;;;5052306;28;20483;-79
2022/01/13 08:04:39;;;;;;;9.70;6.00;;;15.20;58.70;;;;;;5052149;28;20525;-79
2022/01/13 08:07:08;;;;;;;9.80;6.00;;;15.20;58.80;;;;;;5051643;28;21012;-80
2022/01/13 08:09:35;;;;;;;11.30;6.80;;;15.20;58.80;;;;;;5050269;28;20493;-79
2022/01/13 08:12:04;;;;;;;10.43;6.30;;;15.20;58.80;;;;;;5051531;28;20522;-80
2022/01/13 08:14:33;;;;;;;9.67;6.10;;;15.30;58.80;;;;;;5051847;28;20525;-79
2022/01/13 08:17:03;;;;;;;11.40;6.60;;;15.20;58.70;;;;;;5052071;28;20537;-79
2022/01/13 08:19:45;;;;;;;12.63;7.00;;;15.20;58.80;;;;;;5051515;28;20530;-81
2022/01/13 08:22:14;;;;;;;10.30;6.50;;;15.20;58.70;;;;;;5036940;28;20493;-80
2022/01/13 08:24:42;;;;;;;10.00;6.27;;;15.20;58.70;;;;;;5031489;28;20531;-79
2022/01/13 08:27:10;;;;;;;11.47;6.43;;;15.30;58.70;;;;;;5036637;28;20482;-79
2022/01/13 08:29:40;;;;;;;9.27;6.23;;;15.30;58.60;;;;;;5051347;28;20474;-79
2022/01/13 08:32:08;;;;;;;8.30;5.47;;;15.30;58.60;;;;;;5051148;28;20530;-80
2022/01/13 08:34:36;;;;;;;11.03;6.50;;;15.30;58.70;;;;;;5051142;28;20446;-79
2022/01/13 08:37:04;;;;;;;9.90;6.13;;;15.20;58.60;;;;;;5052932;28;20525;-79
2022/01/13 08:39:38;;;;;;;10.70;7.00;;;15.20;58.60;;;;;;5055004;28;20539;-79
2022/01/13 08:42:06;;;;;;;9.30;6.40;;;15.20;58.60;;;;;;5054685;28;20438;-79
2022/01/13 08:44:34;;;;;;;9.70;6.10;;;15.20;58.80;;;;;;5042566;28;20557;-80
2022/01/13 08:47:05;;;;;;;11.53;7.03;;;15.20;58.70;;;;;;5049406;28;20434;-79
2022/01/13 08:49:33;;;;;;;10.10;6.13;;;15.20;58.80;;;;;;5043556;28;20451;-79
2022/01/13 08:52:02;;;;;;;9.13;6.23;;;15.20;58.70;;;;;;5045806;28;20427;-80
2022/01/13 08:54:29;;;;;;;12.13;5.70;;;15.20;58.90;;;;;;5045644;28;20502;-79
2022/01/13 08:56:58;;;;;;;9.97;6.10;;;15.30;58.90;;;;;;5043267;28;20467;-80
2022/01/13 08:59:25;;;;;;;9.97;6.03;;;15.30;58.90;;;;;;5044464;28;20496;-79
2022/01/13 09:01:53;;;;;;;8.70;5.60;;;15.30;58.80;;;;;;5039286;28;20493;-80
2022/01/13 09:04:23;;;;;;;9.57;6.03;;;15.30;58.80;;;;;;5059526;28;20454;-79
2022/01/13 09:06:51;;;;;;;7.30;5.67;;;15.30;58.80;;;;;;5056824;28;20514;-82
2022/01/13 09:09:18;;;;;;;10.20;5.73;;;15.30;58.80;;;;;;5059166;28;20497;-79
2022/01/13 09:11:46;;;;;;;7.97;6.03;;;15.30;58.70;;;;;;5055707;28;20545;-79
2022/01/13 09:14:15;;;;;;;9.30;6.00;;;15.30;58.70;;;;;;5055520;28;20453;-79
2022/01/13 09:16:46;;;;;;;7.83;6.00;;;15.30;58.90;;;;;;5053059;28;20570;-81
2022/01/13 09:19:17;;;;;;;8.27;5.40;;;15.30;58.80;;;;;;5055129;28;20502;-79
2022/01/13 09:21:47;;;;;;;9.10;6.40;;;15.30;58.80;;;;;;5055079;28;20455;-80
2022/01/13 09:24:16;;;;;;;8.40;5.97;;;15.30;58.80;;;;;;5058769;28;20431;-80
2022/01/13 09:26:44;;;;;;;8.93;5.90;;;15.30;58.70;;;;;;5055448;28;20469;-79
2022/01/13 09:29:13;;;;;;;8.90;6.13;;;15.30;58.70;;;;;;5053063;28;20473;-81
2022/01/13 09:31:41;;;;;;;8.60;5.50;;;15.30;58.80;;;;;;5055999;28;20462;-79
2022/01/13 09:34:09;;;;;;;8.50;5.57;;;15.30;58.80;;;;;;5056638;28;20434;-79
2022/01/13 09:36:37;;;;;;;9.90;6.40;;;15.40;58.90;;;;;;5054824;28;20474;-82
2022/01/13 09:39:07;;;;;;;7.47;5.80;;;15.40;58.90;;;;;;5071676;28;20443;-84
2022/01/13 09:41:37;;;;;;;9.67;6.23;;;15.40;58.80;;;;;;5068934;28;20435;-83
2022/01/13 09:44:06;;;;;;;11.10;6.37;;;15.40;58.80;;;;;;5077887;28;20422;-82
2022/01/13 09:46:34;;;;;;;8.40;5.50;;;15.40;58.70;;;;;;5077356;28;20446;-85
2022/01/13 09:49:04;;;;;;;6.97;5.70;;;15.40;58.80;;;;;;5075653;28;20449;-85
2022/01/13 09:51:32;;;;;;;9.10;6.63;;;15.40;58.90;;;;;;5076919;28;20415;-84
2022/01/13 09:54:00;;;;;;;9.20;6.03;;;15.40;58.80;;;;;;5077760;28;20438;-83
2022/01/13 09:56:30;;;;;;;8.47;6.03;;;15.40;58.80;;;;;;5059302;28;20520;-79
2022/01/13 09:58:58;;;;;;;8.73;5.97;;;15.40;58.80;;;;;;5050296;28;20446;-79
2022/01/13 10:01:26;;;;;;;8.50;5.90;;;15.50;58.80;;;;;;5054077;28;20470;-79
2022/01/13 10:03:54;;;;;;;7.20;5.20;;;15.50;58.80;;;;;;5057125;28;20489;-80
2022/01/13 10:06:22;;;;;;;8.50;5.73;;;15.50;58.80;;;;;;5056303;28;20462;-80
2022/01/13 10:08:51;;;;;;;8.10;5.50;;;15.50;58.80;;;;;;5055736;28;20886;-79
2022/01/13 10:11:33;;;;;;;8.67;5.97;;;15.50;58.80;;;;;;5058571;28;20431;-81
2022/01/13 10:14:15;;;;;;;8.40;4.97;;;15.50;58.80;;;;;;5057280;28;20489;-80
2022/01/13 10:16:44;;;;;;;6.87;5.00;;;15.50;58.70;;;;;;5057504;28;20535;-80
2022/01/13 10:19:26;;;;;;;9.30;5.97;;;15.50;58.80;;;;;;5055662;28;20459;-80
2022/01/13 10:21:58;;;;;;;5.53;4.87;;;15.50;58.80;;;;;;5056118;28;20537;-80
2022/01/13 10:24:27;;;;;;;8.23;5.90;;;15.50;58.80;;;;;;5056823;28;20460;-79
2022/01/13 10:27:04;;;;;;;8.00;5.90;;;15.50;58.70;;;;;;5055223;28;20457;-80
2022/01/13 10:29:43;;;;;;;6.87;5.60;;;15.50;58.80;;;;;;5053483;28;20546;-79
2022/01/13 10:32:13;;;;;;;6.97;5.40;;;15.50;58.80;;;;;;5053717;28;20485;-80
2022/01/13 10:34:42;;;;;;;8.50;5.67;;;15.50;58.80;;;;;;5053660;28;20466;-79
2022/01/13 10:37:13;;;;;;;12.20;5.53;;;15.50;58.70;;;;;;5053826;28;20470;-79
2022/01/13 10:39:51;;;;;;;6.27;5.23;;;15.50;58.80;;;;;;5053744;28;20482;-80
2022/01/13 10:45:30;;;;;;;7.87;5.33;;;15.60;58.80;;;;;;5053695;28;20478;-80
2022/01/13 10:47:59;;;;;;;6.97;5.67;;;15.50;58.80;;;;;;5054118;28;20529;-81
2022/01/13 10:50:29;;;;;;;6.77;5.30;;;15.60;58.80;;;;;;5054938;28;20478;-79
2022/01/13 10:53:02;;;;;;;8.63;5.33;;;15.60;58.80;;;;;;5052198;28;20535;-80
2022/01/13 10:55:30;;;;;;;8.40;6.03;;;15.60;58.80;;;;;;5050250;28;20529;-80
2022/01/13 10:58:14;;;;;;;9.47;5.83;;;15.60;58.70;;;;;;5053094;28;20435;-80
2022/01/13 11:00:42;;;;;;;6.03;4.83;;;15.60;59.30;;;;;;5046569;28;20542;-80
2022/01/13 11:03:12;;;;;;;7.13;5.27;;;15.60;58.70;;;;;;5043485;28;20428;-79
2022/01/13 11:05:42;;;;;;;8.10;6.20;;;15.60;58.70;;;;;;5041671;28;20535;-80
2022/01/13 11:08:10;;;;;;;8.70;6.17;;;15.60;58.80;;;;;;5044267;28;20459;-79
2022/01/13 11:10:49;;;;;;;7.90;5.73;;;15.60;58.80;;;;;;5043407;28;20534;-79
2022/01/13 11:13:19;;;;;;;6.13;4.97;;;15.60;58.70;;;;;;5040867;28;20534;-79
2022/01/13 11:15:51;;;;;;;10.57;6.53;;;15.60;58.80;;;;;;5043838;28;20522;-79
2022/01/13 11:18:20;;;;;;;8.80;5.73;;;15.60;58.70;;;;;;5043007;28;20471;-80
2022/01/13 11:20:49;;;;;;;5.97;5.10;;;15.60;58.70;;;;;;5049190;28;20454;-80
2022/01/13 11:23:18;;;;;;;8.87;5.77;;;15.60;58.70;;;;;;5050749;28;20459;-82
2022/01/13 11:25:46;;;;;;;8.37;6.07;;;15.60;58.80;;;;;;5050325;28;20441;-82
2022/01/13 11:28:15;;;;;;;9.23;6.50;;;15.70;58.70;;;;;;5048030;28;20423;-82
2022/01/13 11:30:45;;;;;;;8.63;6.10;;;15.70;58.70;;;;;;5049262;28;20533;-82
2022/01/13 11:33:13;;;;;;;8.80;6.13;;;15.70;58.70;;;;;;5046783;28;20503;-82
2022/01/13 11:35:48;;;;;;;7.20;5.40;;;15.70;58.70;;;;;;5047987;28;20537;-82
2022/01/13 11:38:18;;;;;;;8.00;5.83;;;15.70;58.70;;;;;;5046610;28;20467;-82
2022/01/13 11:40:46;;;;;;;8.47;5.70;;;15.70;58.70;;;;;;5047085;28;20474;-82
2022/01/13 11:43:38;;;;;;;7.90;6.00;;;15.70;58.70;;;;;;5051863;28;20518;-82
2022/01/13 11:46:16;;;;;;;10.00;6.07;;;15.70;58.60;;;;;;5042958;28;20497;-82
2022/01/13 11:48:57;;;;;;;8.63;5.33;;;15.70;58.60;;;;;;5057279;28;20426;-82
2022/01/13 11:51:24;;;;;;;8.47;5.50;;;15.70;58.70;;;;;;5058378;28;20449;-82
2022/01/13 11:53:55;;;;;;;8.43;5.73;;;15.70;58.70;;;;;;5057727;28;20426;-82
2022/01/13 11:56:22;;;;;;;10.40;6.83;;;15.70;58.70;;;;;;5057672;28;20436;-82
2022/01/13 11:58:50;;;;;;;7.13;5.70;;;15.70;58.70;;;;;;5056562;28;20446;-82
2022/01/13 12:01:21;;;;;;;9.27;5.80;;;15.70;58.60;;;;;;5057398;28;20546;-82
2022/01/13 12:03:50;;;;;;;8.97;6.23;;;15.70;58.60;;;;;;5057673;28;20541;-82
2022/01/13 12:06:41;;;;;;;6.80;5.20;;;15.70;58.60;;;;;;5056904;28;20469;-82
2022/01/13 12:09:09;;;;;;;10.20;6.80;;;15.80;58.60;;;;;;5057622;28;20482;-82
2022/01/13 12:11:39;;;;;;;7.37;5.33;;;15.70;58.70;;;;;;5058814;28;20441;-82
2022/01/13 12:14:35;;;;;;;8.57;5.97;;;15.70;58.70;;;;;;5062276;28;20481;-81
2022/01/13 12:17:12;;;;;;;8.87;5.80;;;15.70;58.60;;;;;;5060053;28;20497;-82
2022/01/13 12:19:43;;;;;;;8.97;6.07;;;15.70;58.60;;;;;;5060943;28;20469;-82
2022/01/13 12:22:19;;;;;;;8.80;5.80;;;15.80;58.80;;;;;;5061377;28;20672;-82
2022/01/13 12:24:51;;;;;;;9.80;5.97;;;15.80;58.70;;;;;;5060747;28;20529;-82
2022/01/13 12:27:21;;;;;;;8.30;6.40;;;15.70;59.20;;;;;;5060909;28;20498;-82
2022/01/13 12:29:51;;;;;;;7.90;5.90;;;15.80;58.70;;;;;;5060709;28;20537;-82
2022/01/13 12:32:36;;;;;;;8.67;6.10;;;15.80;58.70;;;;;;5059302;28;20456;-82
2022/01/13 12:35:06;;;;;;;6.90;5.33;;;15.80;58.60;;;;;;5060457;28;20446;-82
2022/01/13 12:37:37;;;;;;;9.50;5.90;;;15.80;58.90;;;;;;5060706;28;20553;-82
2022/01/13 12:40:11;;;;;;;9.80;6.60;;;15.80;58.80;;;;;;5061145;28;20516;-82
2022/01/13 12:42:51;;;;;;;8.50;5.60;;;15.80;58.70;;;;;;5060683;28;20445;-82
2022/01/13 12:45:32;;;;;;;8.63;5.93;;;15.80;59.20;;;;;;5060587;28;20484;-82
2022/01/13 12:48:04;;;;;;;7.20;5.27;;;15.80;58.70;;;;;;5060738;28;20414;-82
2022/01/13 12:50:35;;;;;;;14.63;6.30;;;15.80;58.70;;;;;;5049826;28;20525;-82
2022/01/13 12:53:10;;;;;;;8.07;5.77;;;15.80;58.60;;;;;;5054142;28;20534;-81
2022/01/13 12:55:39;;;;;;;7.13;5.60;;;15.80;58.60;;;;;;5058037;28;20523;-82
2022/01/13 12:58:07;;;;;;;8.47;5.50;;;15.80;58.70;;;;;;5058241;28;20470;-82
2022/01/13 13:00:57;;;;;;;6.77;5.33;;;15.80;58.70;;;;;;5057882;28;20455;-82
2022/01/13 13:03:26;;;;;;;7.97;6.00;;;15.80;58.70;;;;;;5058337;28;20451;-82
2022/01/13 13:05:56;;;;;;;5.53;5.00;;;15.80;58.60;;;;;;5056069;28;20478;-82
2022/01/13 13:08:25;;;;;;;9.17;6.10;;;15.80;58.70;;;;;;5057178;28;20510;-81
2022/01/13 13:10:57;;;;;;;8.00;5.80;;;15.80;58.70;;;;;;5058582;28;20482;-82
2022/01/13 13:13:27;;;;;;;7.80;5.70;;;15.80;58.60;;;;;;5060156;28;20542;-82
2022/01/13 13:15:56;;;;;;;8.67;6.20;;;15.90;58.70;;;;;;5059446;28;20458;-81